sensor_id;sensor_type;location;lat;lon;timestamp;P1;durP1;ratioP1;P2;durP2;ratioP2
495;SDS011;39559;48.630;9.162;2022-07-21T00:04:06;30.13;;;26.85;;
495;SDS011;39559;48.630;9.162;2022-07-21T00:06:31;106.30;;;36.60;;
495;SDS011;39559;48.630;9.162;2022-07-21T00:08:57;255.33;;;39.23;;
495;SDS011;39559;48.630;9.162;2022-07-21T00:11:23;170.53;;;32.47;;
495;SDS011;39559;48.630;9.162;2022-07-21T00:13:48;32.60;;;26.87;;
495;SDS011;39559;48.630;9.162;2022-07-21T00:16:14;29.60;;;25.83;;
495;SDS011;39559;48.630;9.162;2022-07-21T00:18:39;32.10;;;26.40;;
495;SDS011;39559;48.630;9.162;2022-07-21T00:21:05;192.20;;;37.07;;
495;SDS011;39559;48.630;9.162;2022-07-21T00:23:31;31.70;;;27.10;;
495;SDS011;39559;48.630;9.162;2022-07-21T00:28:02;73.65;;;32.15;;
495;SDS011;39559;48.630;9.162;2022-07-21T00:30:29;133.10;;;37.05;;
495;SDS011;39559;48.630;9.162;2022-07-21T00:32:55;367.30;;;50.87;;
495;SDS011;39559;48.630;9.162;2022-07-21T00:35:20;103.63;;;35.87;;
495;SDS011;39559;48.630;9.162;2022-07-21T00:37:46;106.60;;;36.00;;
495;SDS011;39559;48.630;9.162;2022-07-21T00:40:12;45.57;;;32.50;;
495;SDS011;39559;48.630;9.162;2022-07-21T00:42:38;35.30;;;28.95;;
495;SDS011;39559;48.630;9.162;2022-07-21T00:45:05;35.38;;;29.67;;
495;SDS011;39559;48.630;9.162;2022-07-21T00:47:32;33.00;;;27.85;;
495;SDS011;39559;48.630;9.162;2022-07-21T00:51:56;31.00;;;24.85;;
495;SDS011;39559;48.630;9.162;2022-07-21T00:54:21;32.17;;;26.60;;
495;SDS011;39559;48.630;9.162;2022-07-21T00:56:47;44.13;;;29.20;;
495;SDS011;39559;48.630;9.162;2022-07-21T00:59:13;35.77;;;27.33;;
495;SDS011;39559;48.630;9.162;2022-07-21T01:01:39;45.13;;;29.98;;
495;SDS011;39559;48.630;9.162;2022-07-21T01:04:05;32.90;;;27.47;;
495;SDS011;39559;48.630;9.162;2022-07-21T01:06:31;33.77;;;28.43;;
495;SDS011;39559;48.630;9.162;2022-07-21T01:08:56;50.60;;;31.67;;
495;SDS011;39559;48.630;9.162;2022-07-21T01:11:23;34.83;;;27.90;;
495;SDS011;39559;48.630;9.162;2022-07-21T01:15:51;36.38;;;27.10;;
495;SDS011;39559;48.630;9.162;2022-07-21T01:18:16;40.87;;;27.63;;
495;SDS011;39559;48.630;9.162;2022-07-21T01:20:44;33.53;;;28.27;;
495;SDS011;39559;48.630;9.162;2022-07-21T01:23:12;30.90;;;25.80;;
495;SDS011;39559;48.630;9.162;2022-07-21T01:25:38;36.20;;;27.63;;
495;SDS011;39559;48.630;9.162;2022-07-21T01:28:03;35.60;;;25.80;;
495;SDS011;39559;48.630;9.162;2022-07-21T01:30:29;27.40;;;23.93;;
495;SDS011;39559;48.630;9.162;2022-07-21T01:32:55;30.37;;;24.53;;
495;SDS011;39559;48.630;9.162;2022-07-21T01:35:20;29.70;;;25.07;;
495;SDS011;39559;48.630;9.162;2022-07-21T01:39:46;25.40;;;21.65;;
495;SDS011;39559;48.630;9.162;2022-07-21T01:42:31;31.10;;;24.15;;
495;SDS011;39559;48.630;9.162;2022-07-21T01:44:57;31.13;;;24.17;;
495;SDS011;39559;48.630;9.162;2022-07-21T01:47:23;24.40;;;21.27;;
495;SDS011;39559;48.630;9.162;2022-07-21T01:49:48;29.60;;;22.60;;
495;SDS011;39559;48.630;9.162;2022-07-21T01:52:14;29.50;;;22.20;;
495;SDS011;39559;48.630;9.162;2022-07-21T01:54:40;29.90;;;23.73;;
495;SDS011;39559;48.630;9.162;2022-07-21T01:57:06;26.17;;;21.93;;
495;SDS011;39559;48.630;9.162;2022-07-21T01:59:31;29.10;;;23.07;;
495;SDS011;39559;48.630;9.162;2022-07-21T02:03:41;25.40;;;20.40;;
495;SDS011;39559;48.630;9.162;2022-07-21T02:06:06;26.03;;;21.80;;
495;SDS011;39559;48.630;9.162;2022-07-21T02:08:34;25.83;;;23.02;;
495;SDS011;39559;48.630;9.162;2022-07-21T02:10:59;28.83;;;21.30;;
495;SDS011;39559;48.630;9.162;2022-07-21T02:13:25;30.07;;;22.67;;
495;SDS011;39559;48.630;9.162;2022-07-21T02:15:51;23.23;;;18.38;;
495;SDS011;39559;48.630;9.162;2022-07-21T02:18:17;22.70;;;18.47;;
495;SDS011;39559;48.630;9.162;2022-07-21T02:20:43;28.02;;;21.25;;
495;SDS011;39559;48.630;9.162;2022-07-21T02:23:10;26.83;;;20.00;;
495;SDS011;39559;48.630;9.162;2022-07-21T02:27:36;24.38;;;17.95;;
495;SDS011;39559;48.630;9.162;2022-07-21T02:30:03;20.77;;;18.03;;
495;SDS011;39559;48.630;9.162;2022-07-21T02:32:29;24.17;;;18.88;;
495;SDS011;39559;48.630;9.162;2022-07-21T02:34:55;26.48;;;19.73;;
495;SDS011;39559;48.630;9.162;2022-07-21T02:37:21;60.37;;;24.53;;
495;SDS011;39559;48.630;9.162;2022-07-21T02:39:48;50.17;;;23.85;;
495;SDS011;39559;48.630;9.162;2022-07-21T02:42:13;31.03;;;21.07;;
495;SDS011;39559;48.630;9.162;2022-07-21T02:44:39;51.40;;;24.80;;
495;SDS011;39559;48.630;9.162;2022-07-21T02:47:05;28.90;;;20.10;;
495;SDS011;39559;48.630;9.162;2022-07-21T02:51:32;71.20;;;25.83;;
495;SDS011;39559;48.630;9.162;2022-07-21T02:53:57;37.63;;;21.00;;
495;SDS011;39559;48.630;9.162;2022-07-21T02:56:23;36.53;;;20.63;;
495;SDS011;39559;48.630;9.162;2022-07-21T02:58:48;34.67;;;19.07;;
495;SDS011;39559;48.630;9.162;2022-07-21T03:01:14;31.97;;;21.60;;
495;SDS011;39559;48.630;9.162;2022-07-21T03:03:40;37.97;;;20.17;;
495;SDS011;39559;48.630;9.162;2022-07-21T03:06:06;30.83;;;19.90;;
495;SDS011;39559;48.630;9.162;2022-07-21T03:08:32;27.07;;;18.00;;
495;SDS011;39559;48.630;9.162;2022-07-21T03:10:57;69.17;;;23.63;;
495;SDS011;39559;48.630;9.162;2022-07-21T03:15:27;31.80;;;19.20;;
495;SDS011;39559;48.630;9.162;2022-07-21T03:17:53;20.80;;;17.20;;
495;SDS011;39559;48.630;9.162;2022-07-21T03:20:22;22.93;;;18.30;;
495;SDS011;39559;48.630;9.162;2022-07-21T03:22:48;22.08;;;18.25;;
495;SDS011;39559;48.630;9.162;2022-07-21T03:25:14;33.77;;;21.03;;
495;SDS011;39559;48.630;9.162;2022-07-21T03:27:39;22.10;;;16.37;;
495;SDS011;39559;48.630;9.162;2022-07-21T03:30:05;23.23;;;17.43;;
495;SDS011;39559;48.630;9.162;2022-07-21T03:32:33;29.42;;;18.02;;
495;SDS011;39559;48.630;9.162;2022-07-21T03:34:59;32.25;;;18.60;;
495;SDS011;39559;48.630;9.162;2022-07-21T03:39:23;23.17;;;17.00;;
495;SDS011;39559;48.630;9.162;2022-07-21T03:41:48;34.70;;;19.07;;
495;SDS011;39559;48.630;9.162;2022-07-21T03:44:14;41.80;;;21.47;;
495;SDS011;39559;48.630;9.162;2022-07-21T03:46:39;184.60;;;29.97;;
495;SDS011;39559;48.630;9.162;2022-07-21T03:49:05;22.70;;;18.47;;
495;SDS011;39559;48.630;9.162;2022-07-21T03:51:30;23.37;;;16.73;;
495;SDS011;39559;48.630;9.162;2022-07-21T03:53:56;35.60;;;18.50;;
495;SDS011;39559;48.630;9.162;2022-07-21T03:56:23;31.67;;;18.77;;
495;SDS011;39559;48.630;9.162;2022-07-21T03:58:49;58.50;;;22.10;;
495;SDS011;39559;48.630;9.162;2022-07-21T04:03:17;59.50;;;21.25;;
495;SDS011;39559;48.630;9.162;2022-07-21T04:05:43;20.93;;;16.90;;
495;SDS011;39559;48.630;9.162;2022-07-21T04:08:09;23.27;;;17.97;;
495;SDS011;39559;48.630;9.162;2022-07-21T04:10:37;31.67;;;18.88;;
495;SDS011;39559;48.630;9.162;2022-07-21T04:13:04;25.48;;;19.08;;
495;SDS011;39559;48.630;9.162;2022-07-21T04:15:32;41.97;;;20.45;;
495;SDS011;39559;48.630;9.162;2022-07-21T04:17:59;25.85;;;17.35;;
495;SDS011;39559;48.630;9.162;2022-07-21T04:20:24;48.08;;;20.15;;
495;SDS011;39559;48.630;9.162;2022-07-21T04:22:50;26.43;;;18.13;;
495;SDS011;39559;48.630;9.162;2022-07-21T04:27:14;22.60;;;17.38;;
495;SDS011;39559;48.630;9.162;2022-07-21T04:29:39;30.13;;;17.70;;
495;SDS011;39559;48.630;9.162;2022-07-21T04:32:05;43.63;;;20.80;;
495;SDS011;39559;48.630;9.162;2022-07-21T04:34:31;125.53;;;25.13;;
495;SDS011;39559;48.630;9.162;2022-07-21T04:36:56;53.33;;;19.90;;
495;SDS011;39559;48.630;9.162;2022-07-21T04:39:22;21.00;;;16.33;;
495;SDS011;39559;48.630;9.162;2022-07-21T04:41:48;26.67;;;18.17;;
495;SDS011;39559;48.630;9.162;2022-07-21T04:44:13;50.97;;;21.87;;
495;SDS011;39559;48.630;9.162;2022-07-21T04:46:39;94.80;;;25.40;;
495;SDS011;39559;48.630;9.162;2022-07-21T04:51:09;20.88;;;17.90;;
495;SDS011;39559;48.630;9.162;2022-07-21T04:53:35;49.37;;;19.57;;
495;SDS011;39559;48.630;9.162;2022-07-21T04:56:00;44.90;;;20.53;;
495;SDS011;39559;48.630;9.162;2022-07-21T04:58:26;62.40;;;21.20;;
495;SDS011;39559;48.630;9.162;2022-07-21T05:00:51;50.17;;;17.93;;
495;SDS011;39559;48.630;9.162;2022-07-21T05:03:17;23.60;;;16.10;;
495;SDS011;39559;48.630;9.162;2022-07-21T05:05:42;32.53;;;18.90;;
495;SDS011;39559;48.630;9.162;2022-07-21T05:08:08;23.37;;;16.83;;
495;SDS011;39559;48.630;9.162;2022-07-21T05:10:33;32.60;;;18.53;;
495;SDS011;39559;48.630;9.162;2022-07-21T05:15:05;94.22;;;24.95;;
495;SDS011;39559;48.630;9.162;2022-07-21T05:17:36;65.70;;;22.85;;
495;SDS011;39559;48.630;9.162;2022-07-21T05:20:02;299.27;;;32.97;;
495;SDS011;39559;48.630;9.162;2022-07-21T05:22:29;53.33;;;19.90;;
495;SDS011;39559;48.630;9.162;2022-07-21T05:24:54;155.57;;;26.33;;
495;SDS011;39559;48.630;9.162;2022-07-21T05:27:20;171.30;;;26.77;;
495;SDS011;39559;48.630;9.162;2022-07-21T05:29:46;107.10;;;24.20;;
495;SDS011;39559;48.630;9.162;2022-07-21T05:32:11;43.20;;;19.70;;
495;SDS011;39559;48.630;9.162;2022-07-21T05:34:37;27.40;;;18.80;;
495;SDS011;39559;48.630;9.162;2022-07-21T05:39:00;31.02;;;16.75;;
495;SDS011;39559;48.630;9.162;2022-07-21T05:41:26;25.30;;;16.80;;
495;SDS011;39559;48.630;9.162;2022-07-21T05:43:51;25.80;;;18.07;;
495;SDS011;39559;48.630;9.162;2022-07-21T05:46:17;36.57;;;19.67;;
495;SDS011;39559;48.630;9.162;2022-07-21T05:48:43;23.13;;;17.63;;
495;SDS011;39559;48.630;9.162;2022-07-21T05:51:08;36.80;;;19.83;;
495;SDS011;39559;48.630;9.162;2022-07-21T05:53:34;30.93;;;18.90;;
495;SDS011;39559;48.630;9.162;2022-07-21T05:55:59;50.53;;;21.67;;
495;SDS011;39559;48.630;9.162;2022-07-21T05:58:25;42.77;;;22.00;;
495;SDS011;39559;48.630;9.162;2022-07-21T06:02:56;61.87;;;23.70;;
495;SDS011;39559;48.630;9.162;2022-07-21T06:05:22;30.77;;;21.77;;
495;SDS011;39559;48.630;9.162;2022-07-21T06:07:47;52.53;;;26.87;;
495;SDS011;39559;48.630;9.162;2022-07-21T06:10:13;101.27;;;29.93;;
495;SDS011;39559;48.630;9.162;2022-07-21T06:12:39;38.30;;;23.27;;
495;SDS011;39559;48.630;9.162;2022-07-21T06:15:05;54.33;;;26.93;;
495;SDS011;39559;48.630;9.162;2022-07-21T06:17:38;38.47;;;25.27;;
495;SDS011;39559;48.630;9.162;2022-07-21T06:20:07;35.97;;;24.90;;
495;SDS011;39559;48.630;9.162;2022-07-21T06:22:34;38.07;;;26.27;;
495;SDS011;39559;48.630;9.162;2022-07-21T06:26:51;36.33;;;26.40;;
495;SDS011;39559;48.630;9.162;2022-07-21T06:29:17;43.17;;;27.67;;
495;SDS011;39559;48.630;9.162;2022-07-21T06:31:43;52.50;;;28.23;;
495;SDS011;39559;48.630;9.162;2022-07-21T06:34:08;38.70;;;26.10;;
495;SDS011;39559;48.630;9.162;2022-07-21T06:36:34;30.23;;;23.17;;
495;SDS011;39559;48.630;9.162;2022-07-21T06:38:59;25.23;;;21.80;;
495;SDS011;39559;48.630;9.162;2022-07-21T06:41:25;24.47;;;21.97;;
495;SDS011;39559;48.630;9.162;2022-07-21T06:43:50;21.87;;;19.50;;
495;SDS011;39559;48.630;9.162;2022-07-21T06:46:16;23.63;;;20.07;;
495;SDS011;39559;48.630;9.162;2022-07-21T06:50:47;20.33;;;17.93;;
495;SDS011;39559;48.630;9.162;2022-07-21T06:53:13;20.20;;;18.10;;
495;SDS011;39559;48.630;9.162;2022-07-21T06:55:40;23.57;;;21.00;;
495;SDS011;39559;48.630;9.162;2022-07-21T06:58:14;22.70;;;19.83;;
495;SDS011;39559;48.630;9.162;2022-07-21T07:00:41;21.83;;;19.43;;
495;SDS011;39559;48.630;9.162;2022-07-21T07:03:08;19.73;;;17.20;;
495;SDS011;39559;48.630;9.162;2022-07-21T07:05:34;21.23;;;19.00;;
495;SDS011;39559;48.630;9.162;2022-07-21T07:08:00;20.27;;;18.17;;
495;SDS011;39559;48.630;9.162;2022-07-21T07:10:26;20.60;;;18.50;;
495;SDS011;39559;48.630;9.162;2022-07-21T07:14:43;19.17;;;17.20;;
495;SDS011;39559;48.630;9.162;2022-07-21T07:17:09;18.57;;;16.80;;
495;SDS011;39559;48.630;9.162;2022-07-21T07:19:36;19.00;;;17.10;;
495;SDS011;39559;48.630;9.162;2022-07-21T07:22:01;17.67;;;15.40;;
495;SDS011;39559;48.630;9.162;2022-07-21T07:24:27;15.80;;;14.07;;
495;SDS011;39559;48.630;9.162;2022-07-21T07:26:52;16.50;;;15.00;;
495;SDS011;39559;48.630;9.162;2022-07-21T07:29:18;17.73;;;15.83;;
495;SDS011;39559;48.630;9.162;2022-07-21T07:31:43;18.17;;;16.47;;
495;SDS011;39559;48.630;9.162;2022-07-21T07:34:09;17.03;;;15.43;;
495;SDS011;39559;48.630;9.162;2022-07-21T07:38:39;18.27;;;16.40;;
495;SDS011;39559;48.630;9.162;2022-07-21T07:41:05;15.90;;;14.20;;
495;SDS011;39559;48.630;9.162;2022-07-21T07:43:31;17.33;;;15.50;;
495;SDS011;39559;48.630;9.162;2022-07-21T07:45:56;16.47;;;14.93;;
495;SDS011;39559;48.630;9.162;2022-07-21T07:48:22;17.07;;;15.30;;
495;SDS011;39559;48.630;9.162;2022-07-21T07:50:47;16.10;;;14.40;;
495;SDS011;39559;48.630;9.162;2022-07-21T07:53:13;17.60;;;15.80;;
495;SDS011;39559;48.630;9.162;2022-07-21T07:55:38;13.30;;;12.10;;
495;SDS011;39559;48.630;9.162;2022-07-21T07:58:04;14.13;;;12.83;;
495;SDS011;39559;48.630;9.162;2022-07-21T08:02:35;13.27;;;12.00;;
495;SDS011;39559;48.630;9.162;2022-07-21T08:05:01;14.07;;;12.43;;
495;SDS011;39559;48.630;9.162;2022-07-21T08:07:28;13.70;;;12.30;;
495;SDS011;39559;48.630;9.162;2022-07-21T08:09:53;13.60;;;12.27;;
495;SDS011;39559;48.630;9.162;2022-07-21T08:12:19;13.80;;;12.40;;
495;SDS011;39559;48.630;9.162;2022-07-21T08:14:44;13.73;;;12.43;;
495;SDS011;39559;48.630;9.162;2022-07-21T08:17:10;13.67;;;12.37;;
495;SDS011;39559;48.630;9.162;2022-07-21T08:19:35;13.40;;;12.20;;
495;SDS011;39559;48.630;9.162;2022-07-21T08:22:01;13.23;;;11.93;;
495;SDS011;39559;48.630;9.162;2022-07-21T08:26:30;11.43;;;10.33;;
495;SDS011;39559;48.630;9.162;2022-07-21T08:28:56;12.03;;;10.93;;
495;SDS011;39559;48.630;9.162;2022-07-21T08:31:23;12.70;;;10.93;;
495;SDS011;39559;48.630;9.162;2022-07-21T08:33:49;13.50;;;12.20;;
495;SDS011;39559;48.630;9.162;2022-07-21T08:36:15;13.50;;;12.20;;
495;SDS011;39559;48.630;9.162;2022-07-21T08:38:41;13.60;;;12.20;;
495;SDS011;39559;48.630;9.162;2022-07-21T08:41:07;13.33;;;12.10;;
495;SDS011;39559;48.630;9.162;2022-07-21T08:43:33;13.40;;;12.20;;
495;SDS011;39559;48.630;9.162;2022-07-21T08:45:59;13.90;;;12.50;;
495;SDS011;39559;48.630;9.162;2022-07-21T08:50:27;13.73;;;12.47;;
495;SDS011;39559;48.630;9.162;2022-07-21T08:52:55;14.33;;;12.90;;
495;SDS011;39559;48.630;9.162;2022-07-21T08:55:20;14.10;;;12.70;;
495;SDS011;39559;48.630;9.162;2022-07-21T08:57:46;14.13;;;12.80;;
495;SDS011;39559;48.630;9.162;2022-07-21T09:00:11;13.77;;;12.37;;
495;SDS011;39559;48.630;9.162;2022-07-21T09:02:37;13.87;;;12.60;;
495;SDS011;39559;48.630;9.162;2022-07-21T09:05:04;12.30;;;11.10;;
495;SDS011;39559;48.630;9.162;2022-07-21T09:10:23;12.20;;;11.10;;
495;SDS011;39559;48.630;9.162;2022-07-21T09:14:21;13.50;;;12.20;;
495;SDS011;39559;48.630;9.162;2022-07-21T09:16:50;12.87;;;11.67;;
495;SDS011;39559;48.630;9.162;2022-07-21T09:19:24;12.37;;;11.07;;
495;SDS011;39559;48.630;9.162;2022-07-21T09:21:53;12.17;;;10.97;;
495;SDS011;39559;48.630;9.162;2022-07-21T09:29:51;11.63;;;10.63;;
495;SDS011;39559;48.630;9.162;2022-07-21T09:34:52;12.70;;;11.40;;
495;SDS011;39559;48.630;9.162;2022-07-21T09:38:17;11.80;;;10.70;;
495;SDS011;39559;48.630;9.162;2022-07-21T09:40:46;12.57;;;11.37;;
495;SDS011;39559;48.630;9.162;2022-07-21T09:43:27;12.77;;;11.57;;
495;SDS011;39559;48.630;9.162;2022-07-21T09:46:17;12.40;;;11.20;;
495;SDS011;39559;48.630;9.162;2022-07-21T09:49:01;10.97;;;9.80;;
495;SDS011;39559;48.630;9.162;2022-07-21T09:51:37;10.93;;;9.93;;
495;SDS011;39559;48.630;9.162;2022-07-21T09:54:05;12.13;;;10.93;;
495;SDS011;39559;48.630;9.162;2022-07-21T09:56:35;11.60;;;10.40;;
495;SDS011;39559;48.630;9.162;2022-07-21T09:59:06;11.47;;;10.33;;
495;SDS011;39559;48.630;9.162;2022-07-21T10:02:28;12.20;;;10.97;;
495;SDS011;39559;48.630;9.162;2022-07-21T10:04:56;11.80;;;10.70;;
495;SDS011;39559;48.630;9.162;2022-07-21T10:07:24;11.93;;;10.63;;
495;SDS011;39559;48.630;9.162;2022-07-21T10:09:51;11.90;;;10.70;;
495;SDS011;39559;48.630;9.162;2022-07-21T10:12:17;13.00;;;10.93;;
495;SDS011;39559;48.630;9.162;2022-07-21T10:14:43;12.33;;;11.23;;
495;SDS011;39559;48.630;9.162;2022-07-21T10:17:12;11.80;;;10.70;;
495;SDS011;39559;48.630;9.162;2022-07-21T10:22:36;11.93;;;10.80;;
495;SDS011;39559;48.630;9.162;2022-07-21T10:26:07;11.47;;;10.37;;
495;SDS011;39559;48.630;9.162;2022-07-21T10:28:34;11.77;;;10.57;;
495;SDS011;39559;48.630;9.162;2022-07-21T10:31:11;10.93;;;9.93;;
495;SDS011;39559;48.630;9.162;2022-07-21T10:36:55;10.80;;;9.80;;
495;SDS011;39559;48.630;9.162;2022-07-21T10:41:38;11.80;;;9.93;;
495;SDS011;39559;48.630;9.162;2022-07-21T10:47:02;12.90;;;11.60;;
495;SDS011;39559;48.630;9.162;2022-07-21T10:50:02;11.90;;;10.90;;
495;SDS011;39559;48.630;9.162;2022-07-21T10:57:35;11.97;;;10.87;;
495;SDS011;39559;48.630;9.162;2022-07-21T11:00:46;11.03;;;10.03;;
495;SDS011;39559;48.630;9.162;2022-07-21T11:02:58;11.33;;;10.27;;
495;SDS011;39559;48.630;9.162;2022-07-21T11:05:25;11.60;;;10.40;;
495;SDS011;39559;48.630;9.162;2022-07-21T11:08:09;10.53;;;9.63;;
495;SDS011;39559;48.630;9.162;2022-07-21T11:10:39;11.03;;;9.97;;
495;SDS011;39559;48.630;9.162;2022-07-21T11:14:12;11.60;;;10.50;;
495;SDS011;39559;48.630;9.162;2022-07-21T11:19:29;10.50;;;9.60;;
495;SDS011;39559;48.630;9.162;2022-07-21T11:22:00;9.70;;;8.80;;
495;SDS011;39559;48.630;9.162;2022-07-21T11:24:27;9.17;;;8.27;;
495;SDS011;39559;48.630;9.162;2022-07-21T11:27:36;10.40;;;9.40;;
495;SDS011;39559;48.630;9.162;2022-07-21T11:29:46;10.07;;;9.00;;
495;SDS011;39559;48.630;9.162;2022-07-21T11:32:14;10.33;;;9.37;;
495;SDS011;39559;48.630;9.162;2022-07-21T11:34:51;9.70;;;8.80;;
495;SDS011;39559;48.630;9.162;2022-07-21T11:37:51;9.67;;;8.87;;
495;SDS011;39559;48.630;9.162;2022-07-21T11:40:18;9.13;;;8.33;;
495;SDS011;39559;48.630;9.162;2022-07-21T11:42:46;9.70;;;8.80;;
495;SDS011;39559;48.630;9.162;2022-07-21T11:45:15;9.60;;;8.77;;
495;SDS011;39559;48.630;9.162;2022-07-21T11:47:42;9.80;;;8.80;;
495;SDS011;39559;48.630;9.162;2022-07-21T11:50:09;9.77;;;8.87;;
495;SDS011;39559;48.630;9.162;2022-07-21T11:52:37;9.60;;;8.77;;
495;SDS011;39559;48.630;9.162;2022-07-21T11:55:04;10.00;;;8.97;;
495;SDS011;39559;48.630;9.162;2022-07-21T11:57:32;8.60;;;7.80;;
495;SDS011;39559;48.630;9.162;2022-07-21T12:01:58;9.17;;;8.37;;
495;SDS011;39559;48.630;9.162;2022-07-21T12:09:57;9.10;;;8.20;;
495;SDS011;39559;48.630;9.162;2022-07-21T12:12:34;9.50;;;8.60;;
495;SDS011;39559;48.630;9.162;2022-07-21T12:15:10;9.10;;;8.20;;
495;SDS011;39559;48.630;9.162;2022-07-21T12:17:46;8.83;;;8.00;;
495;SDS011;39559;48.630;9.162;2022-07-21T12:20:14;8.50;;;7.70;;
495;SDS011;39559;48.630;9.162;2022-07-21T12:22:48;8.77;;;7.97;;
495;SDS011;39559;48.630;9.162;2022-07-21T12:25:39;8.97;;;8.07;;
495;SDS011;39559;48.630;9.162;2022-07-21T12:28:05;8.93;;;8.13;;
495;SDS011;39559;48.630;9.162;2022-07-21T12:30:44;8.33;;;7.63;;
495;SDS011;39559;48.630;9.162;2022-07-21T12:33:12;8.90;;;8.10;;
495;SDS011;39559;48.630;9.162;2022-07-21T12:38:37;8.63;;;7.83;;
495;SDS011;39559;48.630;9.162;2022-07-21T12:41:09;9.00;;;8.17;;
495;SDS011;39559;48.630;9.162;2022-07-21T12:43:36;9.27;;;8.47;;
495;SDS011;39559;48.630;9.162;2022-07-21T12:46:08;8.10;;;7.40;;
495;SDS011;39559;48.630;9.162;2022-07-21T12:49:33;8.63;;;7.83;;
495;SDS011;39559;48.630;9.162;2022-07-21T12:52:29;8.47;;;7.77;;
495;SDS011;39559;48.630;9.162;2022-07-21T12:54:56;8.33;;;7.50;;
495;SDS011;39559;48.630;9.162;2022-07-21T12:57:29;8.23;;;7.53;;
495;SDS011;39559;48.630;9.162;2022-07-21T12:59:57;8.80;;;7.93;;
495;SDS011;39559;48.630;9.162;2022-07-21T13:02:24;8.10;;;7.30;;
495;SDS011;39559;48.630;9.162;2022-07-21T13:04:50;8.80;;;7.90;;
495;SDS011;39559;48.630;9.162;2022-07-21T13:07:17;8.47;;;7.63;;
495;SDS011;39559;48.630;9.162;2022-07-21T13:09:43;9.00;;;8.20;;
495;SDS011;39559;48.630;9.162;2022-07-21T13:13:26;7.97;;;7.27;;
495;SDS011;39559;48.630;9.162;2022-07-21T13:15:53;8.87;;;8.07;;
495;SDS011;39559;48.630;9.162;2022-07-21T13:18:19;7.90;;;7.20;;
495;SDS011;39559;48.630;9.162;2022-07-21T13:20:45;7.87;;;7.17;;
495;SDS011;39559;48.630;9.162;2022-07-21T13:23:13;8.27;;;7.50;;
495;SDS011;39559;48.630;9.162;2022-07-21T13:25:38;8.80;;;7.57;;
495;SDS011;39559;48.630;9.162;2022-07-21T13:28:04;8.23;;;7.53;;
495;SDS011;39559;48.630;9.162;2022-07-21T13:30:29;8.47;;;7.57;;
495;SDS011;39559;48.630;9.162;2022-07-21T13:32:55;8.77;;;8.00;;
495;SDS011;39559;48.630;9.162;2022-07-21T13:37:20;8.40;;;7.70;;
495;SDS011;39559;48.630;9.162;2022-07-21T13:39:45;8.53;;;7.77;;
495;SDS011;39559;48.630;9.162;2022-07-21T13:42:11;8.40;;;7.60;;
495;SDS011;39559;48.630;9.162;2022-07-21T13:44:36;8.90;;;8.10;;
495;SDS011;39559;48.630;9.162;2022-07-21T13:47:02;8.80;;;7.90;;
495;SDS011;39559;48.630;9.162;2022-07-21T13:49:28;8.80;;;8.00;;
495;SDS011;39559;48.630;9.162;2022-07-21T13:51:54;8.30;;;7.60;;
495;SDS011;39559;48.630;9.162;2022-07-21T13:54:19;8.60;;;7.83;;
495;SDS011;39559;48.630;9.162;2022-07-21T13:56:45;8.60;;;7.90;;
495;SDS011;39559;48.630;9.162;2022-07-21T14:01:13;8.73;;;7.90;;
495;SDS011;39559;48.630;9.162;2022-07-21T14:03:39;8.70;;;7.90;;
495;SDS011;39559;48.630;9.162;2022-07-21T14:06:05;8.87;;;8.00;;
495;SDS011;39559;48.630;9.162;2022-07-21T14:08:31;8.77;;;7.73;;
495;SDS011;39559;48.630;9.162;2022-07-21T14:10:57;9.80;;;9.00;;
495;SDS011;39559;48.630;9.162;2022-07-21T14:13:22;9.80;;;8.80;;
495;SDS011;39559;48.630;9.162;2022-07-21T14:15:48;10.10;;;9.20;;
495;SDS011;39559;48.630;9.162;2022-07-21T14:18:13;10.60;;;8.87;;
495;SDS011;39559;48.630;9.162;2022-07-21T14:20:39;9.27;;;8.57;;
495;SDS011;39559;48.630;9.162;2022-07-21T14:25:07;10.13;;;9.20;;
495;SDS011;39559;48.630;9.162;2022-07-21T14:27:49;10.30;;;9.40;;
495;SDS011;39559;48.630;9.162;2022-07-21T14:30:19;9.60;;;8.70;;
495;SDS011;39559;48.630;9.162;2022-07-21T14:32:45;8.90;;;8.00;;
495;SDS011;39559;48.630;9.162;2022-07-21T14:35:13;9.37;;;8.57;;
495;SDS011;39559;48.630;9.162;2022-07-21T14:37:44;13.83;;;11.50;;
495;SDS011;39559;48.630;9.162;2022-07-21T14:40:11;11.60;;;10.60;;
495;SDS011;39559;48.630;9.162;2022-07-21T14:42:37;10.33;;;9.43;;
495;SDS011;39559;48.630;9.162;2022-07-21T14:45:04;11.70;;;10.80;;
495;SDS011;39559;48.630;9.162;2022-07-21T14:48:59;11.33;;;10.27;;
495;SDS011;39559;48.630;9.162;2022-07-21T14:51:25;10.90;;;9.90;;
495;SDS011;39559;48.630;9.162;2022-07-21T14:53:50;10.80;;;9.90;;
495;SDS011;39559;48.630;9.162;2022-07-21T14:56:16;10.63;;;9.73;;
495;SDS011;39559;48.630;9.162;2022-07-21T14:58:41;10.27;;;9.37;;
495;SDS011;39559;48.630;9.162;2022-07-21T15:01:07;10.60;;;9.50;;
495;SDS011;39559;48.630;9.162;2022-07-21T15:03:33;9.83;;;8.93;;
495;SDS011;39559;48.630;9.162;2022-07-21T15:05:58;10.60;;;9.63;;
495;SDS011;39559;48.630;9.162;2022-07-21T15:08:24;10.73;;;9.73;;
495;SDS011;39559;48.630;9.162;2022-07-21T15:12:52;9.90;;;9.10;;
495;SDS011;39559;48.630;9.162;2022-07-21T15:15:18;9.90;;;9.00;;
495;SDS011;39559;48.630;9.162;2022-07-21T15:17:43;10.30;;;9.40;;
495;SDS011;39559;48.630;9.162;2022-07-21T15:20:09;10.73;;;9.30;;
495;SDS011;39559;48.630;9.162;2022-07-21T15:22:35;10.40;;;9.50;;
495;SDS011;39559;48.630;9.162;2022-07-21T15:25:01;10.30;;;9.40;;
495;SDS011;39559;48.630;9.162;2022-07-21T15:27:27;11.83;;;9.53;;
495;SDS011;39559;48.630;9.162;2022-07-21T15:29:53;9.90;;;9.10;;
495;SDS011;39559;48.630;9.162;2022-07-21T15:32:19;10.80;;;9.90;;
495;SDS011;39559;48.630;9.162;2022-07-21T15:36:44;10.67;;;9.67;;
495;SDS011;39559;48.630;9.162;2022-07-21T15:39:10;11.03;;;10.03;;
495;SDS011;39559;48.630;9.162;2022-07-21T15:41:36;11.77;;;10.67;;
495;SDS011;39559;48.630;9.162;2022-07-21T15:44:04;10.40;;;9.40;;
495;SDS011;39559;48.630;9.162;2022-07-21T15:46:31;10.83;;;9.70;;
495;SDS011;39559;48.630;9.162;2022-07-21T15:48:57;10.10;;;9.20;;
495;SDS011;39559;48.630;9.162;2022-07-21T15:51:23;11.07;;;10.07;;
495;SDS011;39559;48.630;9.162;2022-07-21T15:53:48;10.80;;;9.70;;
495;SDS011;39559;48.630;9.162;2022-07-21T15:56:14;10.03;;;9.13;;
495;SDS011;39559;48.630;9.162;2022-07-21T16:00:37;10.27;;;9.33;;
495;SDS011;39559;48.630;9.162;2022-07-21T16:03:03;10.23;;;9.33;;
495;SDS011;39559;48.630;9.162;2022-07-21T16:05:28;10.00;;;9.03;;
495;SDS011;39559;48.630;9.162;2022-07-21T16:07:55;10.40;;;9.40;;
495;SDS011;39559;48.630;9.162;2022-07-21T16:10:21;10.50;;;9.33;;
495;SDS011;39559;48.630;9.162;2022-07-21T16:12:49;9.73;;;8.73;;
495;SDS011;39559;48.630;9.162;2022-07-21T16:15:16;11.13;;;9.50;;
495;SDS011;39559;48.630;9.162;2022-07-21T16:17:42;10.47;;;9.47;;
495;SDS011;39559;48.630;9.162;2022-07-21T16:20:10;10.17;;;9.27;;
495;SDS011;39559;48.630;9.162;2022-07-21T16:24:30;9.60;;;8.70;;
495;SDS011;39559;48.630;9.162;2022-07-21T16:26:58;9.77;;;8.97;;
495;SDS011;39559;48.630;9.162;2022-07-21T16:29:23;9.83;;;8.90;;
495;SDS011;39559;48.630;9.162;2022-07-21T16:31:49;10.47;;;9.57;;
495;SDS011;39559;48.630;9.162;2022-07-21T16:34:14;9.63;;;8.63;;
495;SDS011;39559;48.630;9.162;2022-07-21T16:36:40;10.10;;;9.17;;
495;SDS011;39559;48.630;9.162;2022-07-21T16:39:05;9.73;;;8.83;;
495;SDS011;39559;48.630;9.162;2022-07-21T16:41:31;9.50;;;8.70;;
495;SDS011;39559;48.630;9.162;2022-07-21T16:43:56;9.70;;;8.80;;
495;SDS011;39559;48.630;9.162;2022-07-21T16:48:22;9.80;;;8.90;;